Time;durP1;ratioP1;P1;durP2;ratioP2;P2;SDS_P1;SDS_P2;PMS_P1;PMS_P2;Temp;Humidity;BMP_temperature;BMP_pressure;BME280_temperature;BME280_humidity;BME280_pressure;Samples;Min_cycle;Max_cycle;Signal;HPM_P1;HPM_P2
2022/12/01 00:00:39;;;;;;;19.80;17.73;;;;;21.20;101445.00;;;;2088990;28;20653;-49
2022/12/01 00:01:39;;;;;;;21.27;19.00;;;;;21.20;101444.00;;;;2088921;28;20723;-49
2022/12/01 00:02:39;;;;;;;19.40;17.47;;;;;21.20;101441.00;;;;2089002;28;20240;-47
2022/12/01 00:03:40;;;;;;;19.77;17.50;;;;;21.20;101444.00;;;;2089147;28;20221;-49
2022/12/01 00:04:40;;;;;;;20.40;18.03;;;;;21.20;101437.00;;;;2089023;28;20205;-49
2022/12/01 00:05:40;;;;;;;19.40;17.40;;;;;21.20;101444.00;;;;2088243;28;20590;-48
2022/12/01 00:06:41;;;;;;;19.70;17.60;;;;;21.20;101442.00;;;;2088923;28;20213;-48
2022/12/01 00:07:41;;;;;;;19.43;17.40;;;;;21.10;101436.00;;;;2088758;28;20201;-49
2022/12/01 00:10:24;;;;;;;21.13;18.20;;;;;21.10;101436.00;;;;2088884;28;20210;-48
2022/12/01 00:10:24;;;;;;;19.50;17.48;;;;;21.10;101437.00;;;;2087882;28;20205;-48
2022/12/01 00:11:25;;;;;;;18.67;16.77;;;;;21.10;101437.00;;;;2086145;28;20220;-47
2022/12/01 00:12:25;;;;;;;18.83;16.83;;;;;21.10;101433.00;;;;2084075;28;20231;-46
2022/12/01 00:13:25;;;;;;;18.57;16.57;;;;;21.10;101428.00;;;;2088806;28;20237;-49
2022/12/01 00:14:26;;;;;;;22.30;17.67;;;;;21.10;101430.00;;;;2088593;28;20217;-48
2022/12/01 00:15:33;;;;;;;22.80;18.37;;;;;21.20;101437.00;;;;2088026;28;20300;-49
2022/12/01 00:16:34;;;;;;;21.40;15.70;;;;;21.20;101433.00;;;;2080069;28;20695;-47
2022/12/01 00:17:35;;;;;;;22.98;17.27;;;;;21.20;101436.00;;;;2078643;28;20221;-49
2022/12/01 00:18:35;;;;;;;19.73;17.00;;;;;21.20;101428.00;;;;2086183;28;20217;-48
2022/12/01 00:19:36;;;;;;;21.27;17.23;;;;;21.30;101425.00;;;;2084698;28;20252;-50
2022/12/01 00:20:36;;;;;;;24.90;17.03;;;;;21.30;101424.00;;;;2084554;28;20594;-47
2022/12/01 00:21:37;;;;;;;18.10;16.20;;;;;21.30;101425.00;;;;2085841;28;20308;-48
2022/12/01 00:22:37;;;;;;;20.97;16.47;;;;;21.20;101432.00;;;;2081748;28;20233;-47
2022/12/01 00:23:37;;;;;;;23.70;15.13;;;;;21.20;101426.00;;;;2088262;28;20388;-47
2022/12/01 00:24:38;;;;;;;20.23;16.67;;;;;21.10;101424.00;;;;2081317;28;20206;-46
2022/12/01 00:25:38;;;;;;;23.67;16.40;;;;;21.00;101429.00;;;;2083716;28;20240;-47
2022/12/01 00:26:39;;;;;;;19.47;15.67;;;;;21.00;101419.00;;;;2086158;28;20213;-48
2022/12/01 00:27:39;;;;;;;21.13;15.87;;;;;21.00;101425.00;;;;2084594;28;20214;-46
2022/12/01 00:28:39;;;;;;;25.30;15.20;;;;;21.00;101423.00;;;;2084449;28;20214;-47
2022/12/01 00:29:40;;;;;;;22.10;15.83;;;;;21.00;101429.00;;;;2088014;28;20666;-50
2022/12/01 00:30:40;;;;;;;20.17;15.40;;;;;21.00;101427.00;;;;2088003;28;20818;-49
2022/12/01 00:31:40;;;;;;;27.10;16.80;;;;;21.00;101425.00;;;;2087801;28;20209;-51
2022/12/01 00:32:41;;;;;;;22.47;15.70;;;;;21.00;101425.00;;;;2087340;28;20204;-52
2022/12/01 00:33:41;;;;;;;25.03;16.53;;;;;21.00;101428.00;;;;2087922;28;20209;-50
2022/12/01 00:34:41;;;;;;;22.70;14.90;;;;;21.00;101431.00;;;;2088239;28;20256;-50
2022/12/01 00:35:42;;;;;;;21.80;15.93;;;;;21.00;101425.00;;;;2088131;28;20217;-50
2022/12/01 00:36:42;;;;;;;23.23;15.00;;;;;21.00;101424.00;;;;2084993;28;20201;-50
2022/12/01 00:37:42;;;;;;;19.50;14.80;;;;;21.00;101426.00;;;;2074060;28;20237;-49
2022/12/01 00:38:43;;;;;;;20.17;15.20;;;;;21.10;101425.00;;;;2079339;28;20214;-50
2022/12/01 00:39:43;;;;;;;18.63;15.23;;;;;21.10;101425.00;;;;2079385;28;20220;-49
2022/12/01 00:40:43;;;;;;;19.53;16.10;;;;;21.10;101425.00;;;;2079364;28;20300;-50
2022/12/01 00:41:44;;;;;;;17.90;14.40;;;;;21.00;101428.00;;;;2079140;28;20213;-49
2022/12/01 00:42:44;;;;;;;16.73;14.20;;;;;21.10;101429.00;;;;2078857;28;20212;-49
2022/12/01 00:43:44;;;;;;;16.47;13.90;;;;;21.00;101421.00;;;;2079070;28;20220;-49
2022/12/01 00:44:46;;;;;;;17.97;15.70;;;;;21.00;101431.00;;;;2082100;28;20208;-48
2022/12/01 00:45:46;;;;;;;21.95;15.57;;;;;21.00;101431.00;;;;2086003;28;20216;-48
2022/12/01 00:46:47;;;;;;;17.63;15.10;;;;;21.00;101429.00;;;;2082305;28;20205;-49
2022/12/01 00:47:47;;;;;;;18.90;14.17;;;;;21.00;101434.00;;;;2078792;28;20213;-48
2022/12/01 00:48:47;;;;;;;21.13;15.80;;;;;21.10;101436.00;;;;2079431;28;20296;-50
2022/12/01 00:49:48;;;;;;;22.53;15.37;;;;;21.10;101425.00;;;;2079356;28;20264;-51
2022/12/01 00:50:51;;;;;;;18.43;14.53;;;;;21.10;101433.00;;;;2078792;28;20213;-52
2022/12/01 00:51:51;;;;;;;22.35;14.80;;;;;21.00;101434.00;;;;2077568;28;20294;-52
2022/12/01 00:52:52;;;;;;;17.33;14.77;;;;;21.00;101433.00;;;;2078707;28;20248;-52
2022/12/01 00:53:52;;;;;;;22.50;15.20;;;;;21.00;101430.00;;;;2079363;28;20286;-52
2022/12/01 00:54:52;;;;;;;17.57;14.60;;;;;21.00;101441.00;;;;2079441;28;20217;-52
2022/12/01 00:55:53;;;;;;;18.00;15.20;;;;;21.00;101432.00;;;;2082019;28;20321;-52
2022/12/01 00:56:53;;;;;;;18.27;14.27;;;;;21.00;101433.00;;;;2078619;28;20237;-52
2022/12/01 00:57:54;;;;;;;15.50;13.70;;;;;21.00;101429.00;;;;2078528;28;20736;-52
2022/12/01 00:58:54;;;;;;;18.80;14.60;;;;;21.00;101434.00;;;;2078196;28;20291;-52
2022/12/01 00:59:54;;;;;;;18.87;15.33;;;;;21.00;101442.00;;;;2077924;28;20213;-51
2022/12/01 01:00:58;;;;;;;15.97;14.00;;;;;21.00;101438.00;;;;2080419;28;20341;-52
2022/12/01 01:01:59;;;;;;;18.23;14.43;;;;;21.00;101431.00;;;;2086654;28;20254;-52
2022/12/01 01:02:59;;;;;;;16.20;14.37;;;;;21.00;101432.00;;;;2079096;28;20618;-52
2022/12/01 01:03:59;;;;;;;16.50;13.47;;;;;21.00;101435.00;;;;2079617;28;20849;-52
2022/12/01 01:05:00;;;;;;;17.20;13.87;;;;;21.00;101434.00;;;;2078189;28;20586;-52
2022/12/01 01:06:04;;;;;;;19.80;15.80;;;;;21.00;101436.00;;;;2078733;28;20652;-53
2022/12/01 01:07:05;;;;;;;18.15;14.38;;;;;21.00;101427.00;;;;2084265;28;20342;-52
2022/12/01 01:08:09;;;;;;;18.57;14.70;;;;;21.00;101441.00;;;;2087509;28;20209;-52
2022/12/01 01:09:09;;;;;;;18.05;15.30;;;;;21.00;101437.00;;;;2079867;28;20237;-51
2022/12/01 01:10:10;;;;;;;21.10;15.20;;;;;20.90;101436.00;;;;2079314;28;20572;-52
2022/12/01 01:11:11;;;;;;;19.37;14.90;;;;;21.00;101436.00;;;;2078897;28;20559;-51
2022/12/01 01:12:11;;;;;;;18.60;15.43;;;;;21.00;101436.00;;;;2078198;28;20214;-52
2022/12/01 01:13:11;;;;;;;21.00;14.90;;;;;21.00;101432.00;;;;2082880;28;20689;-53
2022/12/01 01:14:12;;;;;;;17.57;14.83;;;;;20.90;101436.00;;;;2087437;28;20296;-51
2022/12/01 01:15:12;;;;;;;18.90;15.00;;;;;21.00;101439.00;;;;2087367;28;20227;-52
2022/12/01 01:16:15;;;;;;;18.40;15.30;;;;;21.00;101440.00;;;;2087269;28;20205;-53
2022/12/01 01:17:15;;;;;;;16.15;14.43;;;;;20.90;101440.00;;;;2087517;28;20213;-52
2022/12/01 01:18:15;;;;;;;17.40;14.73;;;;;20.90;101443.00;;;;2087516;28;20217;-53
2022/12/01 01:19:16;;;;;;;19.07;14.90;;;;;21.00;101441.00;;;;2086056;28;20259;-52
2022/12/01 01:20:16;;;;;;;21.60;16.47;;;;;20.90;101450.00;;;;2078244;28;20210;-52
2022/12/01 01:21:18;;;;;;;21.10;16.10;;;;;20.90;101446.00;;;;2078686;28;20209;-52
2022/12/01 01:22:18;;;;;;;19.40;15.88;;;;;20.90;101443.00;;;;2078729;28;20214;-52
2022/12/01 01:23:18;;;;;;;18.87;15.37;;;;;20.90;101443.00;;;;2087383;28;20208;-52
2022/12/01 01:24:19;;;;;;;17.37;14.63;;;;;20.90;101446.00;;;;2087457;28;20727;-52
2022/12/01 01:25:19;;;;;;;17.43;14.80;;;;;20.90;101452.00;;;;2087496;28;20228;-52
2022/12/01 01:26:24;;;;;;;16.63;14.83;;;;;20.90;101449.00;;;;2083440;28;20213;-51
2022/12/01 01:27:25;;;;;;;18.40;14.43;;;;;20.90;101447.00;;;;2079226;28;20210;-53
2022/12/01 01:28:25;;;;;;;19.83;15.10;;;;;20.90;101456.00;;;;2079429;28;20249;-53
2022/12/01 01:29:25;;;;;;;17.60;14.20;;;;;20.90;101454.00;;;;2079109;28;20274;-52
2022/12/01 01:30:26;;;;;;;20.07;15.27;;;;;20.90;101450.00;;;;2083025;28;20209;-52
2022/12/01 01:31:27;;;;;;;18.33;14.87;;;;;20.90;101452.00;;;;2079105;28;20218;-51
2022/12/01 01:32:27;;;;;;;18.63;15.20;;;;;20.90;101451.00;;;;2077400;28;20209;-52
2022/12/01 01:33:28;;;;;;;19.10;15.60;;;;;20.90;101451.00;;;;2078316;28;20217;-53
2022/12/01 01:34:29;;;;;;;20.25;15.45;;;;;20.90;101456.00;;;;2078827;28;20268;-52
2022/12/01 01:35:29;;;;;;;19.07;16.20;;;;;20.90;101455.00;;;;2079190;28;20319;-53
2022/12/01 01:36:29;;;;;;;18.80;15.00;;;;;20.90;101456.00;;;;2079144;28;20232;-53
2022/12/01 01:37:30;;;;;;;16.73;13.97;;;;;20.90;101449.00;;;;2079370;28;20957;-53
2022/12/01 01:38:30;;;;;;;19.30;15.33;;;;;20.90;101457.00;;;;2042535;28;1060046;-55
2022/12/01 01:39:30;;;;;;;18.60;15.43;;;;;20.90;101455.00;;;;2079648;28;20221;-51
2022/12/01 01:40:31;;;;;;;16.37;14.20;;;;;20.90;101454.00;;;;2079373;28;20225;-54
2022/12/01 01:41:31;;;;;;;19.27;15.97;;;;;20.90;101456.00;;;;2079421;28;20228;-52
2022/12/01 01:42:31;;;;;;;18.47;15.20;;;;;20.90;101455.00;;;;2078741;28;20237;-53
2022/12/01 01:43:58;;;;;;;19.60;16.03;;;;;20.90;101450.00;;;;2079111;28;20221;-52
2022/12/01 01:44:59;;;;;;;19.50;15.75;;;;;20.90;101462.00;;;;2077707;28;20704;-52
2022/12/01 01:45:59;;;;;;;18.83;15.30;;;;;20.80;101454.00;;;;2086545;28;20236;-52
2022/12/01 01:46:59;;;;;;;18.20;14.50;;;;;20.90;101457.00;;;;2086915;28;20215;-53
2022/12/01 01:48:00;;;;;;;19.13;16.60;;;;;20.80;101466.00;;;;2086906;28;20213;-54
2022/12/01 01:49:08;;;;;;;18.47;15.60;;;;;20.80;101455.00;;;;2086795;28;20274;-53
2022/12/01 01:50:10;;;;;;;21.48;14.85;;;;;20.90;101472.00;;;;2085916;28;20216;-51
2022/12/01 01:51:10;;;;;;;20.63;14.23;;;;;20.90;101463.00;;;;2085923;28;20637;-51
2022/12/01 01:52:11;;;;;;;18.23;15.03;;;;;20.90;101462.00;;;;2085317;28;20212;-50
2022/12/01 01:53:11;;;;;;;17.17;13.60;;;;;20.90;101465.00;;;;2077732;28;20217;-51
2022/12/01 01:54:25;;;;;;;21.37;15.53;;;;;20.90;101472.00;;;;2077748;28;20213;-51
2022/12/01 01:55:26;;;;;;;20.45;15.00;;;;;20.90;101463.00;;;;2069293;28;20261;-53
2022/12/01 01:56:26;;;;;;;20.70;15.93;;;;;20.90;101463.00;;;;2062842;28;20603;-54
2022/12/01 01:57:31;;;;;;;18.53;14.87;;;;;20.90;101472.00;;;;2062810;28;20246;-53
2022/12/01 01:58:31;;;;;;;18.42;14.55;;;;;20.90;101471.00;;;;2060894;28;20316;-51
2022/12/01 01:59:35;;;;;;;20.00;14.83;;;;;20.90;101460.00;;;;2075596;28;20234;-51
2022/12/01 02:00:37;;;;;;;19.70;15.40;;;;;20.80;101457.00;;;;2078612;28;20218;-51
2022/12/01 02:01:37;;;;;;;17.63;14.63;;;;;20.80;101463.00;;;;2078493;28;20266;-52
2022/12/01 02:02:39;;;;;;;20.00;15.20;;;;;20.80;101470.00;;;;2078116;28;20267;-52
2022/12/01 02:03:39;;;;;;;19.08;15.15;;;;;20.80;101459.00;;;;2078431;28;20606;-51
2022/12/01 02:04:45;;;;;;;18.40;15.00;;;;;20.80;101469.00;;;;2083078;28;20300;-51
2022/12/01 02:05:45;;;;;;;20.98;15.15;;;;;20.80;101460.00;;;;2079514;28;20252;-52
2022/12/01 02:06:46;;;;;;;17.00;15.10;;;;;20.80;101464.00;;;;2086702;28;20204;-52
2022/12/01 02:07:46;;;;;;;18.63;15.20;;;;;20.80;101467.00;;;;2086445;28;20566;-51
2022/12/01 02:08:46;;;;;;;17.97;14.30;;;;;20.80;101468.00;;;;2078146;28;20604;-52
2022/12/01 02:09:47;;;;;;;18.40;15.03;;;;;20.80;101469.00;;;;2078316;28;20624;-52
2022/12/01 02:11:10;;;;;;;18.03;14.07;;;;;20.80;101467.00;;;;2078883;28;20209;-56
2022/12/01 02:12:23;;;;;;;18.77;14.38;;;;;20.80;101465.00;;;;2085562;28;20606;-51
2022/12/01 02:13:32;;;;;;;18.67;15.48;;;;;20.80;101468.00;;;;2086758;28;20267;-51
2022/12/01 02:14:48;;;;;;;17.55;14.52;;;;;20.80;101454.00;;;;2086813;28;20219;-52
2022/12/01 02:16:02;;;;;;;18.30;14.48;;;;;20.80;101467.00;;;;2086091;28;20216;-53
2022/12/01 02:17:34;;;;;;;20.02;15.77;;;;;20.80;101461.00;;;;2086391;28;20695;-51
2022/12/01 02:19:04;;;;;;;17.50;14.38;;;;;20.80;101461.00;;;;2086880;28;20228;-52
2022/12/01 02:20:34;;;;;;;17.13;14.77;;;;;20.80;101449.00;;;;2061703;28;20321;-51
2022/12/01 02:21:44;;;;;;;18.15;14.98;;;;;20.70;101457.00;;;;2076723;28;20226;-52
2022/12/01 02:23:09;;;;;;;17.65;14.00;;;;;20.70;101461.00;;;;2067934;28;20218;-52
2022/12/01 02:24:18;;;;;;;17.75;14.25;;;;;20.70;101458.00;;;;2078377;28;20286;-52
2022/12/01 02:25:21;;;;;;;16.88;15.00;;;;;20.70;101461.00;;;;2086667;28;20282;-52
2022/12/01 02:26:30;;;;;;;17.05;14.35;;;;;20.70;101453.00;;;;2077618;28;20224;-51
2022/12/01 02:27:42;;;;;;;17.83;14.88;;;;;20.70;101458.00;;;;2072823;28;20214;-52
2022/12/01 02:28:53;;;;;;;18.05;15.00;;;;;20.70;101454.00;;;;2076867;28;20680;-52
2022/12/01 02:30:26;;;;;;;18.40;15.23;;;;;20.70;101452.00;;;;2079648;28;20598;-51
2022/12/01 02:32:04;;;;;;;16.98;13.77;;;;;20.70;101456.00;;;;2086490;28;20217;-52
2022/12/01 02:33:12;;;;;;;19.02;15.25;;;;;20.70;101454.00;;;;2086969;28;20250;-52
2022/12/01 02:34:43;;;;;;;20.98;15.38;;;;;20.70;101458.00;;;;2086494;28;20216;-51
2022/12/01 02:36:01;;;;;;;17.52;14.40;;;;;20.70;101452.00;;;;2085863;28;20227;-52
2022/12/01 02:37:41;;;;;;;18.23;14.88;;;;;20.70;101452.00;;;;2078893;28;20562;-53
2022/12/01 02:38:47;;;;;;;18.58;14.90;;;;;20.70;101451.00;;;;2054101;28;20231;-51
2022/12/01 02:39:54;;;;;;;18.80;15.25;;;;;20.60;101455.00;;;;2079240;28;20220;-53
2022/12/01 02:41:00;;;;;;;17.85;14.02;;;;;20.70;101449.00;;;;2086124;28;20237;-52
2022/12/01 02:43:49;;;;;;;17.73;14.50;;;;;20.70;101450.00;;;;2086262;28;20208;-52
2022/12/01 02:44:50;;;;;;;18.02;15.20;;;;;20.60;101453.00;;;;2085811;28;20657;-51
2022/12/01 02:45:53;;;;;;;16.83;13.97;;;;;20.70;101466.00;;;;2086821;28;20212;-52
2022/12/01 02:46:56;;;;;;;15.20;13.23;;;;;20.70;101451.00;;;;2085602;28;20213;-53
2022/12/01 02:48:00;;;;;;;18.85;14.88;;;;;20.60;101460.00;;;;2082216;28;20204;-51
2022/12/01 02:49:06;;;;;;;17.33;14.68;;;;;20.60;101453.00;;;;2077890;28;20713;-51
2022/12/01 02:50:07;;;;;;;18.77;14.52;;;;;20.60;101453.00;;;;2077434;28;20245;-51
2022/12/01 02:51:34;;;;;;;18.67;14.53;;;;;20.60;101454.00;;;;2077730;28;20243;-53
2022/12/01 02:52:34;;;;;;;16.98;14.10;;;;;20.60;101455.00;;;;2076420;28;20208;-52
2022/12/01 02:53:35;;;;;;;18.07;14.73;;;;;20.60;101460.00;;;;2077379;28;20666;-52
2022/12/01 02:54:35;;;;;;;17.90;14.67;;;;;20.60;101452.00;;;;2077503;28;20217;-53
2022/12/01 02:55:35;;;;;;;17.17;14.30;;;;;20.60;101454.00;;;;2077465;28;20221;-52
2022/12/01 02:56:36;;;;;;;20.33;15.70;;;;;20.60;101457.00;;;;2077106;28;20701;-53
2022/12/01 02:57:36;;;;;;;18.00;14.47;;;;;20.60;101448.00;;;;2085633;28;20582;-53
2022/12/01 02:58:36;;;;;;;17.50;15.40;;;;;20.60;101455.00;;;;2087229;28;20534;-53
2022/12/01 02:59:37;;;;;;;19.30;14.13;;;;;20.60;101449.00;;;;2087045;28;20777;-51
2022/12/01 03:00:37;;;;;;;19.37;15.47;;;;;20.60;101463.00;;;;2086383;28;20704;-51
2022/12/01 03:02:02;;;;;;;18.50;15.40;;;;;20.60;101447.00;;;;2086463;28;20685;-53
2022/12/01 03:03:28;;;;;;;18.40;14.93;;;;;20.60;101457.00;;;;2086631;28;20728;-53
2022/12/01 03:04:37;;;;;;;18.92;15.15;;;;;20.60;101457.00;;;;2086239;28;20403;-53
2022/12/01 03:05:44;;;;;;;18.95;15.30;;;;;20.60;101457.00;;;;2086638;28;20217;-52
2022/12/01 03:07:04;;;;;;;20.10;15.57;;;;;20.60;101455.00;;;;2086272;28;20776;-52
2022/12/01 03:08:25;;;;;;;19.48;14.75;;;;;20.50;101456.00;;;;2086186;28;20739;-52
2022/12/01 03:09:50;;;;;;;18.40;14.18;;;;;20.60;101455.00;;;;2078034;28;20279;-51
2022/12/01 03:10:50;;;;;;;18.75;14.40;;;;;20.60;101457.00;;;;2082603;28;20236;-53
2022/12/01 03:12:10;;;;;;;20.20;15.40;;;;;20.60;101461.00;;;;2086071;28;20219;-53
2022/12/01 03:13:44;;;;;;;18.13;14.18;;;;;20.60;101459.00;;;;2086348;28;20303;-51
2022/12/01 03:14:46;;;;;;;18.00;13.85;;;;;20.60;101458.00;;;;2082198;28;20229;-51
2022/12/01 03:16:00;;;;;;;17.45;14.90;;;;;20.60;101467.00;;;;2086154;28;20647;-51
2022/12/01 03:17:03;;;;;;;17.23;14.13;;;;;20.60;101464.00;;;;2077979;28;20244;-51
2022/12/01 03:18:19;;;;;;;18.00;15.15;;;;;20.50;101454.00;;;;2081864;28;20491;-52
2022/12/01 03:19:35;;;;;;;15.93;13.65;;;;;20.60;101459.00;;;;2077892;28;20217;-52
2022/12/01 03:20:42;;;;;;;17.90;14.52;;;;;20.50;101458.00;;;;2071161;28;20344;-52
2022/12/01 03:21:53;;;;;;;18.27;15.18;;;;;20.60;101458.00;;;;2076645;28;20304;-51
2022/12/01 03:22:55;;;;;;;18.95;14.75;;;;;20.50;101454.00;;;;2076348;28;20585;-51
2022/12/01 03:24:02;;;;;;;15.88;14.13;;;;;20.60;101456.00;;;;2071255;28;20218;-50
2022/12/01 03:25:03;;;;;;;19.40;14.15;;;;;20.60;101460.00;;;;2086574;28;20212;-52
2022/12/01 03:26:05;;;;;;;19.50;14.90;;;;;20.50;101454.00;;;;2082953;28;20311;-52
2022/12/01 03:27:06;;;;;;;16.95;13.48;;;;;20.50;101449.00;;;;2074930;28;20316;-51
2022/12/01 03:28:08;;;;;;;15.70;13.77;;;;;20.60;101454.00;;;;2081086;28;20209;-51
2022/12/01 03:29:16;;;;;;;15.80;14.10;;;;;20.50;101455.00;;;;2073997;28;20706;-50
2022/12/01 03:30:17;;;;;;;17.92;14.25;;;;;20.50;101454.00;;;;2071619;28;20264;-52
2022/12/01 03:31:19;;;;;;;17.73;13.53;;;;;20.50;101459.00;;;;2070171;28;20214;-51
2022/12/01 03:32:30;;;;;;;18.30;13.60;;;;;20.50;101451.00;;;;2073334;28;20471;-51
2022/12/01 03:33:33;;;;;;;16.33;13.23;;;;;20.50;101451.00;;;;2068898;28;20232;-51
2022/12/01 03:34:39;;;;;;;17.08;13.30;;;;;20.50;101454.00;;;;2063930;28;20293;-51
2022/12/01 03:35:58;;;;;;;16.33;13.15;;;;;20.50;101465.00;;;;2075995;28;20217;-52
2022/12/01 03:37:02;;;;;;;15.73;13.70;;;;;20.50;101465.00;;;;2086746;28;20295;-51
2022/12/01 03:38:07;;;;;;;17.40;14.23;;;;;20.50;101455.00;;;;2082317;28;20225;-51
2022/12/01 03:39:13;;;;;;;16.27;13.10;;;;;20.50;101461.00;;;;2086376;28;20244;-51
2022/12/01 03:40:17;;;;;;;16.52;14.10;;;;;20.50;101463.00;;;;2082180;28;20274;-51
2022/12/01 03:41:20;;;;;;;15.63;13.35;;;;;20.50;101433.00;;;;2070077;28;20267;-52
2022/12/01 03:42:23;;;;;;;14.95;12.50;;;;;20.50;101462.00;;;;2061817;28;21192;-51
2022/12/01 03:43:27;;;;;;;16.10;13.27;;;;;20.50;101458.00;;;;2062862;28;20250;-52
2022/12/01 03:44:33;;;;;;;16.85;14.10;;;;;20.50;101456.00;;;;2062577;28;20567;-51
2022/12/01 03:45:42;;;;;;;15.40;12.80;;;;;20.50;101466.00;;;;2067281;28;20705;-51
2022/12/01 03:46:56;;;;;;;17.60;13.77;;;;;20.50;101459.00;;;;2081341;28;20213;-50
2022/12/01 03:47:57;;;;;;;15.23;13.07;;;;;20.50;101461.00;;;;2077833;28;20216;-52
2022/12/01 03:48:57;;;;;;;17.00;13.70;;;;;20.50;101461.00;;;;2070320;28;20245;-51
2022/12/01 03:49:59;;;;;;;18.27;13.97;;;;;20.50;101457.00;;;;2073801;28;20292;-51
2022/12/01 03:51:23;;;;;;;14.48;12.75;;;;;20.50;101467.00;;;;2070172;28;20218;-52
2022/12/01 03:52:57;;;;;;;15.45;12.82;;;;;20.40;101464.00;;;;2075144;28;20221;-51
2022/12/01 03:54:31;;;;;;;15.07;12.48;;;;;20.50;101464.00;;;;2080478;28;20266;-52
2022/12/01 03:55:34;;;;;;;14.25;12.68;;;;;20.50;101466.00;;;;2081410;28;20225;-51
2022/12/01 03:56:37;;;;;;;14.45;12.50;;;;;20.50;101476.00;;;;2085905;28;20225;-50
2022/12/01 03:57:42;;;;;;;14.95;12.70;;;;;20.50;101475.00;;;;2082317;28;20261;-51
2022/12/01 03:58:43;;;;;;;16.45;13.18;;;;;20.40;101470.00;;;;2079785;28;20225;-51
2022/12/01 03:59:44;;;;;;;14.68;13.00;;;;;20.40;101475.00;;;;2074797;28;20213;-51
2022/12/01 04:00:48;;;;;;;16.07;13.33;;;;;20.40;101462.00;;;;2079241;28;20712;-52
2022/12/01 04:01:49;;;;;;;15.93;13.32;;;;;20.50;101474.00;;;;2078428;28;20293;-51
2022/12/01 04:02:57;;;;;;;14.77;12.30;;;;;20.40;101462.00;;;;2086584;28;20220;-51
2022/12/01 04:04:05;;;;;;;14.65;12.27;;;;;20.40;101473.00;;;;2086582;28;20623;-50
2022/12/01 04:05:05;;;;;;;15.98;12.77;;;;;20.40;101460.00;;;;2075294;28;20224;-50
2022/12/01 04:06:06;;;;;;;14.33;12.47;;;;;20.40;101463.00;;;;2082579;28;20296;-51
2022/12/01 04:07:12;;;;;;;16.00;13.27;;;;;20.40;101462.00;;;;2087153;28;20258;-52
2022/12/01 04:08:12;;;;;;;15.82;13.07;;;;;20.40;101471.00;;;;2082561;28;20218;-51
2022/12/01 04:09:13;;;;;;;15.63;13.47;;;;;20.40;101467.00;;;;2083227;28;20241;-52
2022/12/01 04:10:13;;;;;;;14.90;13.30;;;;;20.40;101466.00;;;;2082825;28;20227;-52
2022/12/01 04:12:32;;;;;;;14.90;13.07;;;;;20.40;101472.00;;;;2083400;28;20212;-52
2022/12/01 04:13:33;;;;;;;13.93;12.27;;;;;20.40;101461.00;;;;2081765;28;20678;-52
2022/12/01 04:14:33;;;;;;;15.20;12.17;;;;;20.40;101473.00;;;;2081681;28;20217;-52
2022/12/01 04:15:33;;;;;;;13.17;11.73;;;;;20.40;101470.00;;;;2081560;28;20220;-52
2022/12/01 04:16:34;;;;;;;13.47;12.03;;;;;20.40;101471.00;;;;2082477;28;20216;-52
2022/12/01 04:17:34;;;;;;;14.10;11.80;;;;;20.40;101464.00;;;;2080388;28;20217;-51
2022/12/01 04:18:34;;;;;;;14.13;11.80;;;;;20.40;101469.00;;;;2080963;28;20218;-50
2022/12/01 04:19:35;;;;;;;15.50;12.23;;;;;20.40;101466.00;;;;2079112;28;20205;-50
2022/12/01 04:20:35;;;;;;;15.07;11.50;;;;;20.40;101471.00;;;;2078161;28;20221;-51
2022/12/01 04:21:35;;;;;;;15.07;12.03;;;;;20.40;101461.00;;;;2086996;28;20220;-52
2022/12/01 04:22:36;;;;;;;14.80;12.17;;;;;20.40;101464.00;;;;2086261;28;20209;-51
2022/12/01 04:24:55;;;;;;;13.15;11.48;;;;;20.40;101463.00;;;;2078954;28;20213;-52
2022/12/01 04:25:59;;;;;;;14.30;12.80;;;;;20.40;101468.00;;;;2082556;28;20634;-51
2022/12/01 04:26:59;;;;;;;13.88;11.98;;;;;20.30;101462.00;;;;2079384;28;20292;-51
2022/12/01 04:28:00;;;;;;;12.87;11.43;;;;;20.30;101463.00;;;;2079262;28;20210;-52
2022/12/01 04:29:01;;;;;;;13.10;11.67;;;;;20.40;101467.00;;;;2078890;28;20237;-52
2022/12/01 04:30:01;;;;;;;13.60;12.00;;;;;20.40;101467.00;;;;2079128;28;20227;-52
2022/12/01 04:31:01;;;;;;;13.43;12.03;;;;;20.40;101469.00;;;;2086003;28;20467;-51
2022/12/01 04:32:02;;;;;;;12.97;11.60;;;;;20.30;101459.00;;;;2081263;28;20233;-52
2022/12/01 04:33:02;;;;;;;12.60;10.87;;;;;20.30;101470.00;;;;2081076;28;20210;-52
2022/12/01 04:34:03;;;;;;;13.40;11.30;;;;;20.40;101460.00;;;;2087714;28;20209;-51
2022/12/01 04:35:03;;;;;;;15.00;11.77;;;;;20.40;101457.00;;;;2080420;28;20218;-51
2022/12/01 04:36:04;;;;;;;13.63;11.93;;;;;20.30;101467.00;;;;2083571;28;20232;-50
2022/12/01 04:37:04;;;;;;;13.63;11.90;;;;;20.30;101458.00;;;;2082496;28;20217;-50
2022/12/01 04:38:05;;;;;;;15.13;12.33;;;;;20.30;101460.00;;;;2083991;28;20213;-52
2022/12/01 04:39:05;;;;;;;16.53;12.10;;;;;20.30;101460.00;;;;2084170;28;20214;-51
2022/12/01 04:40:06;;;;;;;13.43;11.97;;;;;20.30;101463.00;;;;2088600;28;20653;-51
2022/12/01 04:41:10;;;;;;;14.97;12.20;;;;;20.30;101454.00;;;;2085711;28;20236;-52
2022/12/01 04:42:11;;;;;;;13.18;11.68;;;;;20.40;101456.00;;;;2080085;28;20444;-52
2022/12/01 04:43:11;;;;;;;14.23;12.40;;;;;20.30;101459.00;;;;2082936;28;20221;-50
2022/12/01 04:44:12;;;;;;;13.80;12.30;;;;;20.30;101452.00;;;;2088542;28;20209;-51
2022/12/01 04:45:12;;;;;;;12.97;11.60;;;;;20.30;101454.00;;;;2088338;28;20209;-51
2022/12/01 04:46:13;;;;;;;12.80;11.00;;;;;20.30;101452.00;;;;2084592;28;20225;-51
2022/12/01 04:47:13;;;;;;;13.57;11.17;;;;;20.30;101456.00;;;;2084849;28;20742;-51
2022/12/01 04:48:13;;;;;;;13.13;11.63;;;;;20.30;101452.00;;;;2082954;28;20227;-52
2022/12/01 04:49:13;;;;;;;14.20;11.30;;;;;20.30;101452.00;;;;2083846;28;20214;-51
2022/12/01 04:50:14;;;;;;;12.97;11.67;;;;;20.30;101452.00;;;;2079984;28;20252;-51
2022/12/01 04:51:14;;;;;;;13.20;11.80;;;;;20.30;101449.00;;;;2080169;28;20216;-52
2022/12/01 04:52:15;;;;;;;13.20;11.73;;;;;20.40;101454.00;;;;2081505;28;20257;-50
2022/12/01 04:53:15;;;;;;;15.60;12.33;;;;;20.30;101444.00;;;;2088093;28;20212;-52
2022/12/01 04:54:15;;;;;;;14.03;11.70;;;;;20.30;101455.00;;;;2087671;28;20623;-51
2022/12/01 04:55:16;;;;;;;13.40;11.57;;;;;20.30;101451.00;;;;2087260;28;20709;-52
2022/12/01 04:56:16;;;;;;;12.20;10.87;;;;;20.30;101456.00;;;;2079823;28;20665;-53
2022/12/01 04:57:17;;;;;;;15.57;12.20;;;;;20.30;101448.00;;;;2079517;28;20288;-53
2022/12/01 04:58:17;;;;;;;12.87;10.90;;;;;20.30;101448.00;;;;2079040;28;20210;-54
2022/12/01 04:59:17;;;;;;;15.57;12.20;;;;;20.30;101445.00;;;;2079047;28;20213;-52
2022/12/01 05:00:18;;;;;;;14.80;12.10;;;;;20.30;101446.00;;;;2080007;28;20293;-52
2022/12/01 05:01:18;;;;;;;15.07;12.33;;;;;20.30;101456.00;;;;2078500;28;20758;-53
2022/12/01 05:02:18;;;;;;;14.73;12.77;;;;;20.30;101458.00;;;;2078679;28;20581;-53
2022/12/01 05:03:19;;;;;;;14.00;10.77;;;;;20.30;101459.00;;;;2079820;28;20209;-53
2022/12/01 05:04:19;;;;;;;14.53;12.67;;;;;20.30;101456.00;;;;2079701;28;20201;-53
2022/12/01 05:05:19;;;;;;;14.60;12.17;;;;;20.30;101459.00;;;;2081810;28;20250;-53
2022/12/01 05:06:22;;;;;;;13.33;11.77;;;;;20.30;101449.00;;;;2085238;28;20214;-51
2022/12/01 05:07:22;;;;;;;14.05;11.68;;;;;20.30;101456.00;;;;2079422;28;20225;-51
2022/12/01 05:08:22;;;;;;;12.87;11.47;;;;;20.30;101457.00;;;;2079774;28;20802;-53
2022/12/01 05:09:23;;;;;;;14.93;11.87;;;;;20.30;101449.00;;;;2079721;28;20609;-53
2022/12/01 05:10:23;;;;;;;13.87;11.30;;;;;20.30;101453.00;;;;2086339;28;20643;-53
2022/12/01 05:11:24;;;;;;;14.47;11.53;;;;;20.20;101456.00;;;;2087760;28;20213;-52
2022/12/01 05:12:24;;;;;;;15.13;12.50;;;;;20.30;101455.00;;;;2078807;28;20271;-52
2022/12/01 05:13:25;;;;;;;14.70;12.13;;;;;20.30;101458.00;;;;2079748;28;20534;-52
2022/12/01 05:14:25;;;;;;;13.10;11.10;;;;;20.30;101443.00;;;;2079592;28;20214;-53